Time;durP1;ratioP1;P1;durP2;ratioP2;P2;SDS_P1;SDS_P2;PMS_P1;PMS_P2;Temp;Humidity;BMP_temperature;BMP_pressure;BME280_temperature;BME280_humidity;BME280_pressure;Samples;Min_cycle;Max_cycle;Signal;HPM_P1;HPM_P2
2021/09/11 00:02:14;;;;;;;10.73;9.82;;;;;;;19.70;80.82;101275.31;6215043;28;20237;-50
2021/09/11 00:05:36;;;;;;;11.18;10.25;;;;;;;19.69;80.58;101281.50;6216680;28;20221;-46
2021/09/11 00:08:57;;;;;;;10.50;9.70;;;;;;;19.61;80.81;101273.88;6212802;28;20863;-50
2021/09/11 00:12:20;;;;;;;10.95;10.10;;;;;;;19.63;80.29;101274.66;6205913;28;20236;-53
2021/09/11 00:15:40;;;;;;;11.43;10.52;;;;;;;19.61;80.86;101276.50;6202602;28;20233;-47
2021/09/11 00:19:01;;;;;;;16.13;11.73;;;;;;;19.48;81.61;101284.06;6216447;28;20229;-49
2021/09/11 00:22:22;;;;;;;11.82;10.85;;;;;;;19.92;80.34;101285.03;6219175;28;20233;-50
2021/09/11 00:25:43;;;;;;;12.80;11.50;;;;;;;20.19;78.97;101278.59;6219632;28;20232;-51
2021/09/11 00:29:06;;;;;;;10.15;9.15;;;;;;;20.24;78.46;101275.78;6214705;28;20225;-48
2021/09/11 00:32:27;;;;;;;10.70;9.73;;;;;;;20.14;78.37;101277.94;6214932;28;20233;-53
2021/09/11 00:35:48;;;;;;;11.43;10.40;;;;;;;20.27;77.97;101281.78;6218481;28;20248;-50
2021/09/11 00:39:09;;;;;;;10.65;9.85;;;;;;;20.32;77.43;101283.38;6212302;28;20228;-52
2021/09/11 00:42:30;;;;;;;13.43;12.30;;;;;;;20.15;78.19;101284.94;6205788;28;20225;-49
2021/09/11 00:45:52;;;;;;;16.23;12.40;;;;;;;19.86;80.10;101287.00;6204836;28;20225;-48
2021/09/11 00:49:13;;;;;;;11.48;10.43;;;;;;;19.81;80.28;101286.34;6201133;28;20232;-50
2021/09/11 00:52:34;;;;;;;11.90;10.98;;;;;;;19.92;79.90;101282.41;6203997;28;20233;-51
2021/09/11 00:55:56;;;;;;;14.23;13.00;;;;;;;19.52;82.67;101276.00;6202307;28;20241;-48
2021/09/11 00:59:17;;;;;;;11.93;10.95;;;;;;;19.96;80.11;101271.63;6202039;28;20241;-48
2021/09/11 01:02:39;;;;;;;13.82;12.52;;;;;;;20.00;79.70;101267.94;6197987;28;20247;-48
2021/09/11 01:06:01;;;;;;;12.10;11.10;;;;;;;19.79;80.33;101269.69;6202524;28;20252;-52
2021/09/11 01:09:22;;;;;;;15.20;13.80;;;;;;;19.21;83.70;101267.50;6199878;28;20229;-52
2021/09/11 01:12:45;;;;;;;14.75;13.45;;;;;;;19.32;83.19;101269.72;6210060;28;20319;-52
2021/09/11 01:16:07;;;;;;;14.15;12.95;;;;;;;19.36;83.33;101266.03;6214533;28;20229;-51
2021/09/11 01:19:30;;;;;;;14.65;13.40;;;;;;;19.18;84.28;101270.25;6214223;28;20285;-49
2021/09/11 01:22:51;;;;;;;13.55;12.15;;;;;;;19.22;84.08;101273.66;6213519;28;20311;-49
2021/09/11 01:26:15;;;;;;;14.07;12.88;;;;;;;19.51;82.76;101271.66;6214185;28;20238;-50
2021/09/11 01:29:36;;;;;;;14.77;13.48;;;;;;;19.86;80.55;101280.84;6215484;28;20236;-51
2021/09/11 01:32:57;;;;;;;16.00;14.55;;;;;;;19.71;81.03;101289.38;6211129;28;20310;-51
2021/09/11 01:36:18;;;;;;;12.27;11.27;;;;;;;19.77;80.59;101292.63;6217704;28;20319;-50
2021/09/11 01:39:40;;;;;;;15.57;14.27;;;;;;;19.86;79.84;101287.00;6195393;28;20308;-48
2021/09/11 01:43:03;;;;;;;13.52;12.43;;;;;;;20.10;79.02;101289.56;6217977;28;20232;-48
2021/09/11 01:46:24;;;;;;;14.13;12.95;;;;;;;19.80;79.49;101300.47;6216984;28;20479;-49
2021/09/11 01:49:45;;;;;;;12.48;11.40;;;;;;;19.74;79.48;101303.34;6215483;28;20249;-51
2021/09/11 01:53:06;;;;;;;13.40;12.10;;;;;;;19.30;81.50;101313.81;6211227;28;20268;-47
2021/09/11 01:56:26;;;;;;;13.60;12.43;;;;;;;19.24;81.83;101308.78;6212217;28;20240;-48
2021/09/11 01:59:49;;;;;;;16.15;14.85;;;;;;;18.74;85.23;101306.16;6212094;28;20241;-49
2021/09/11 02:03:10;;;;;;;14.57;13.30;;;;;;;19.06;83.54;101303.25;6214194;28;20587;-48
2021/09/11 02:06:31;;;;;;;14.15;13.02;;;;;;;19.30;82.41;101308.53;6212917;28;20217;-50
2021/09/11 02:09:52;;;;;;;16.25;14.95;;;;;;;19.30;81.71;101303.25;6213750;28;20229;-51
2021/09/11 02:13:13;;;;;;;16.33;14.70;;;;;;;19.43;81.53;101307.16;6213186;28;20311;-50
2021/09/11 02:16:35;;;;;;;14.25;13.15;;;;;;;19.41;81.29;101308.13;6213520;28;20225;-49
2021/09/11 02:19:56;;;;;;;17.73;16.05;;;;;;;19.55;80.72;101297.88;6213044;28;20233;-52
2021/09/11 02:23:17;;;;;;;16.45;14.90;;;;;;;19.88;79.40;101294.88;6213431;28;20237;-48
2021/09/11 02:26:38;;;;;;;14.93;13.65;;;;;;;20.00;78.23;101304.06;6200769;28;20887;-51
2021/09/11 02:29:59;;;;;;;15.77;14.38;;;;;;;19.91;78.78;101304.44;6213904;28;20225;-51
2021/09/11 02:33:21;;;;;;;16.33;14.95;;;;;;;19.65;79.90;101311.59;6212428;28;20313;-50
2021/09/11 02:36:43;;;;;;;19.13;14.65;;;;;;;19.74;79.46;101307.78;6212731;28;20323;-51
2021/09/11 02:40:16;;;;;;;15.75;14.20;;;;;;;19.82;79.20;101319.75;6212571;28;20707;-49
2021/09/11 02:43:38;;;;;;;18.58;16.67;;;;;;;19.84;79.84;101325.84;6210882;28;21034;-53
2021/09/11 02:46:59;;;;;;;21.40;19.33;;;;;;;19.69;79.90;101315.84;6214877;28;20259;-50
2021/09/11 02:50:21;;;;;;;24.73;22.50;;;;;;;19.52;80.41;101318.28;6212706;28;20311;-52
2021/09/11 02:53:42;;;;;;;23.75;21.65;;;;;;;19.60;80.60;101316.19;6214912;28;20311;-48
2021/09/11 02:57:03;;;;;;;25.23;22.92;;;;;;;19.28;81.79;101315.66;6205259;28;20224;-51
2021/09/11 03:00:24;;;;;;;27.98;25.15;;;;;;;19.20;81.87;101328.28;6212442;28;20316;-50
2021/09/11 03:03:45;;;;;;;24.80;22.42;;;;;;;19.44;80.48;101322.09;6211685;28;20325;-49
2021/09/11 03:07:07;;;;;;;23.00;20.90;;;;;;;19.07;81.59;101328.72;6216320;28;20256;-48
2021/09/11 03:10:28;;;;;;;23.35;21.25;;;;;;;19.14;82.03;101324.09;6207950;28;20233;-49
2021/09/11 03:13:49;;;;;;;24.80;22.33;;;;;;;19.08;82.86;101321.69;6212365;28;20605;-51
2021/09/11 03:17:10;;;;;;;25.63;23.13;;;;;;;19.28;81.64;101326.22;6214053;28;20213;-50
2021/09/11 03:20:31;;;;;;;25.58;22.92;;;;;;;19.00;82.96;101326.34;6212506;28;20558;-48
2021/09/11 03:23:53;;;;;;;23.92;21.60;;;;;;;19.40;80.72;101320.47;6209313;28;20489;-49
2021/09/11 03:27:14;;;;;;;24.77;22.27;;;;;;;19.33;80.84;101331.31;6199951;28;20257;-49
2021/09/11 03:30:36;;;;;;;24.95;22.40;;;;;;;19.48;80.39;101320.16;6211932;28;20237;-49
2021/09/11 03:33:56;;;;;;;26.92;24.10;;;;;;;19.17;82.07;101321.31;6212982;28;20237;-51
2021/09/11 03:37:17;;;;;;;24.83;22.50;;;;;;;19.58;80.28;101321.56;6213729;28;20507;-48
2021/09/11 03:40:39;;;;;;;26.00;23.65;;;;;;;19.51;80.14;101328.00;6212919;28;20233;-48
2021/09/11 03:44:00;;;;;;;24.13;21.83;;;;;;;19.52;79.62;101323.56;6213399;28;20232;-48
2021/09/11 03:47:21;;;;;;;23.02;20.67;;;;;;;19.48;79.12;101313.13;6210656;28;20229;-46
2021/09/11 03:50:42;;;;;;;23.38;21.17;;;;;;;19.42;80.49;101313.34;6208250;28;20233;-46
2021/09/11 03:54:04;;;;;;;32.50;29.30;;;;;;;19.64;79.31;101320.47;6210804;28;20225;-50
2021/09/11 03:57:26;;;;;;;28.27;25.35;;;;;;;19.85;78.60;101316.13;6214842;28;20237;-51
2021/09/11 04:00:47;;;;;;;24.67;22.30;;;;;;;20.13;77.16;101322.94;6219070;28;20319;-49
2021/09/11 04:04:08;;;;;;;30.05;24.85;;;;;;;19.24;80.88;101325.47;6216569;28;20267;-48
2021/09/11 04:07:28;;;;;;;29.52;26.55;;;;;;;19.40;79.81;101331.03;6218097;28;20619;-49
2021/09/11 04:10:49;;;;;;;30.88;27.58;;;;;;;19.70;79.21;101332.53;6204268;28;20221;-48
2021/09/11 04:14:12;;;;;;;29.10;26.02;;;;;;;19.79;79.04;101333.09;6205315;28;20519;-47
2021/09/11 04:17:33;;;;;;;31.75;28.50;;;;;;;19.61;79.89;101334.63;6217160;28;20224;-47
2021/09/11 04:20:54;;;;;;;29.67;26.42;;;;;;;19.82;79.09;101332.97;6213438;28;20324;-53
2021/09/11 04:24:15;;;;;;;33.83;29.23;;;;;;;19.58;80.68;101331.25;6199676;28;20237;-50
2021/09/11 04:27:36;;;;;;;35.78;30.25;;;;;;;19.63;80.45;101331.94;6217709;28;20260;-48
2021/09/11 04:30:59;;;;;;;32.90;29.33;;;;;;;19.78;80.16;101327.88;6219747;28;20229;-52
2021/09/11 04:34:20;;;;;;;34.97;31.38;;;;;;;19.86;79.47;101337.22;6214655;28;20229;-47
2021/09/11 04:37:41;;;;;;;40.45;33.97;;;;;;;19.96;79.23;101334.22;6218403;28;20274;-47
2021/09/11 04:41:01;;;;;;;39.38;33.40;;;;;;;19.75;79.95;101338.56;6210036;28;20245;-49
2021/09/11 04:44:22;;;;;;;42.38;35.05;;;;;;;19.72;79.92;101338.69;6208422;28;20237;-49
2021/09/11 04:47:44;;;;;;;41.08;34.70;;;;;;;19.90;79.76;101334.47;6216479;28;20233;-48
2021/09/11 04:51:05;;;;;;;42.50;36.15;;;;;;;19.53;81.12;101336.72;6213936;28;20826;-50
2021/09/11 04:54:26;;;;;;;46.88;40.20;;;;;;;19.48;82.15;101336.91;6215863;28;20224;-49
2021/09/11 04:57:46;;;;;;;44.13;37.33;;;;;;;19.31;82.61;101333.16;6213368;28;20229;-47
2021/09/11 05:01:07;;;;;;;48.85;38.67;;;;;;;19.77;80.85;101334.91;6214812;28;20361;-45
2021/09/11 05:04:30;;;;;;;44.13;35.88;;;;;;;19.90;79.66;101339.75;6206740;28;20699;-52
2021/09/11 05:07:51;;;;;;;42.38;36.72;;;;;;;19.92;79.77;101335.25;6196190;28;20603;-53
2021/09/11 05:11:12;;;;;;;45.03;35.72;;;;;;;19.70;80.62;101341.34;6220269;28;20236;-48
2021/09/11 05:14:33;;;;;;;46.97;37.97;;;;;;;19.71;80.95;101343.06;6207744;28;20244;-50
2021/09/11 05:17:54;;;;;;;48.88;38.08;;;;;;;19.44;81.98;101335.31;6212095;28;20225;-52
2021/09/11 05:21:16;;;;;;;51.83;38.10;;;;;;;19.48;81.77;101339.53;6212985;28;20222;-48
2021/09/11 05:24:38;;;;;;;60.20;37.80;;;;;;;19.15;83.25;101331.06;6214937;28;20221;-48
2021/09/11 05:27:58;;;;;;;54.17;41.10;;;;;;;18.98;84.16;101326.44;6214546;28;20233;-52
2021/09/11 05:31:19;;;;;;;53.83;40.55;;;;;;;19.28;82.60;101331.50;6215813;28;20288;-48
2021/09/11 05:34:41;;;;;;;49.30;38.25;;;;;;;18.97;82.58;101329.97;6215544;28;20595;-48
2021/09/11 05:38:03;;;;;;;55.25;40.75;;;;;;;19.01;83.21;101341.28;6215812;28;20225;-50
2021/09/11 05:41:24;;;;;;;53.72;39.40;;;;;;;19.42;81.45;101350.31;6209802;28;20615;-49
2021/09/11 05:44:45;;;;;;;61.17;42.15;;;;;;;19.20;83.37;101346.78;6210410;28;20228;-47
2021/09/11 05:48:06;;;;;;;57.53;41.10;;;;;;;19.06;84.17;101345.50;6215015;28;20233;-50
2021/09/11 05:51:27;;;;;;;57.63;40.28;;;;;;;19.06;83.99;101345.50;6211110;28;20241;-51
2021/09/11 05:54:49;;;;;;;59.10;42.55;;;;;;;19.19;82.59;101348.56;6208544;28;20327;-54
2021/09/11 05:58:10;;;;;;;59.85;40.47;;;;;;;18.68;85.35;101350.28;6216668;28;20602;-53
2021/09/11 06:01:31;;;;;;;59.63;38.22;;;;;;;18.67;84.96;101356.50;6214183;28;20237;-50
2021/09/11 06:04:52;;;;;;;58.83;40.63;;;;;;;18.53;85.78;101364.00;6204215;28;20225;-52
2021/09/11 06:08:13;;;;;;;55.67;40.03;;;;;;;19.05;83.94;101366.66;6209901;28;20765;-49
2021/09/11 06:11:36;;;;;;;46.05;36.45;;;;;;;19.20;82.48;101360.81;6207997;28;20253;-49
2021/09/11 06:14:56;;;;;;;44.70;33.67;;;;;;;18.98;83.30;101371.31;6199693;28;20607;-50
2021/09/11 06:18:18;;;;;;;38.55;33.92;;;;;;;19.46;81.23;101369.56;6219008;28;20229;-53
2021/09/11 06:21:38;;;;;;;44.47;35.42;;;;;;;19.10;83.48;101371.78;6215412;28;20271;-49
2021/09/11 06:25:00;;;;;;;40.58;34.28;;;;;;;19.20;82.17;101365.25;6219761;28;21873;-50
2021/09/11 06:28:24;;;;;;;42.25;34.83;;;;;;;19.10;82.70;101366.50;6208615;28;20528;-51
2021/09/11 06:31:44;;;;;;;38.03;33.97;;;;;;;19.46;81.07;101367.78;6205267;28;20332;-48
2021/09/11 06:35:07;;;;;;;40.40;34.10;;;;;;;19.26;81.65;101368.50;6199485;28;20229;-48
2021/09/11 06:38:28;;;;;;;39.80;33.72;;;;;;;19.80;80.04;101366.53;6204692;28;20316;-49
2021/09/11 06:41:49;;;;;;;42.05;37.63;;;;;;;19.20;81.33;101365.25;6222115;28;20228;-53
2021/09/11 06:45:12;;;;;;;39.35;35.25;;;;;;;19.36;81.26;101358.47;6215048;28;20237;-51
2021/09/11 06:48:33;;;;;;;40.38;35.25;;;;;;;19.52;80.54;101366.66;6210620;28;20336;-48
2021/09/11 06:51:55;;;;;;;40.15;33.75;;;;;;;19.72;80.01;101368.63;6211390;28;20359;-49
2021/09/11 06:55:16;;;;;;;37.85;33.72;;;;;;;19.53;80.16;101368.41;6213038;28;20236;-49
2021/09/11 06:58:37;;;;;;;38.97;35.00;;;;;;;19.53;80.64;101363.13;6209577;28;20225;-50
2021/09/11 07:01:59;;;;;;;36.65;32.80;;;;;;;19.77;79.44;101364.00;6216756;28;20217;-52
2021/09/11 07:05:20;;;;;;;33.42;30.02;;;;;;;20.42;77.05;101375.50;6211436;28;20229;-53
2021/09/11 07:08:41;;;;;;;36.78;32.97;;;;;;;20.09;78.48;101377.75;6211038;28;20288;-49
2021/09/11 07:12:02;;;;;;;35.50;31.77;;;;;;;20.26;77.36;101375.28;6214387;28;20554;-48
2021/09/11 07:15:23;;;;;;;32.65;28.98;;;;;;;20.40;77.18;101379.13;6210967;28;20237;-50
2021/09/11 07:18:46;;;;;;;33.45;29.88;;;;;;;20.59;76.07;101376.59;6195325;28;20260;-47
2021/09/11 07:22:06;;;;;;;34.67;31.20;;;;;;;20.64;76.00;101375.47;6211514;28;20229;-51
2021/09/11 07:25:27;;;;;;;33.35;29.90;;;;;;;20.59;75.59;101376.59;6211203;28;20308;-51
2021/09/11 07:28:50;;;;;;;32.13;28.83;;;;;;;20.84;74.70;101376.44;6209815;28;20245;-48
2021/09/11 07:32:11;;;;;;;29.15;26.30;;;;;;;21.45;72.27;101387.91;6213518;28;20229;-48
2021/09/11 07:35:34;;;;;;;29.58;26.30;;;;;;;21.12;73.84;101385.81;6219280;28;20674;-47
2021/09/11 07:38:55;;;;;;;31.25;28.05;;;;;;;20.39;76.97;101391.47;6212528;28;20622;-49
2021/09/11 07:42:16;;;;;;;30.48;26.83;;;;;;;20.19;77.94;101389.66;6216807;28;20229;-50
2021/09/11 07:45:37;;;;;;;32.58;29.38;;;;;;;20.31;78.23;101393.59;6210756;28;20256;-47
2021/09/11 07:48:58;;;;;;;29.83;26.85;;;;;;;20.22;78.90;101389.53;6207109;28;20245;-51
2021/09/11 07:52:20;;;;;;;32.25;29.10;;;;;;;19.97;79.69;101394.94;6207524;28;20320;-47
2021/09/11 07:55:42;;;;;;;31.23;28.13;;;;;;;19.89;80.55;101394.41;6209082;28;20233;-51
2021/09/11 07:59:03;;;;;;;31.90;28.88;;;;;;;20.11;80.15;101383.81;6208993;28;20238;-48
2021/09/11 08:02:24;;;;;;;32.67;29.27;;;;;;;20.15;79.56;101392.50;6205186;28;20225;-48
2021/09/11 08:05:45;;;;;;;29.23;26.38;;;;;;;20.44;78.17;101402.75;6209573;28;20222;-48
2021/09/11 08:09:08;;;;;;;29.23;26.33;;;;;;;20.91;76.09;101395.56;6218824;28;20332;-52
2021/09/11 08:12:29;;;;;;;27.60;24.95;;;;;;;20.53;76.96;101404.16;6211177;28;20241;-50
2021/09/11 08:15:49;;;;;;;29.33;26.52;;;;;;;20.27;78.31;101406.06;6217094;28;20237;-52
2021/09/11 08:19:10;;;;;;;28.70;25.63;;;;;;;20.51;77.91;101411.31;6218289;28;20630;-49
2021/09/11 08:22:31;;;;;;;29.30;26.38;;;;;;;20.31;78.17;101408.59;6218798;28;20308;-48
2021/09/11 08:25:54;;;;;;;25.73;23.05;;;;;;;20.63;77.35;101410.81;6216158;28;20233;-50
2021/09/11 08:29:15;;;;;;;29.17;26.08;;;;;;;20.27;78.24;101419.28;6203862;28;20237;-52
2021/09/11 08:32:36;;;;;;;26.88;24.05;;;;;;;20.85;75.64;101407.25;6218636;28;20233;-47
2021/09/11 08:35:57;;;;;;;27.85;25.20;;;;;;;20.44;76.55;101415.97;6216149;28;20221;-50
2021/09/11 08:39:18;;;;;;;27.80;25.20;;;;;;;20.52;76.09;101422.75;6203818;28;20229;-50
2021/09/11 08:42:41;;;;;;;28.23;25.33;;;;;;;20.14;77.45;101420.72;6213701;28;20229;-48
2021/09/11 08:46:02;;;;;;;28.98;26.05;;;;;;;19.99;78.51;101424.81;6208371;28;20662;-47
2021/09/11 08:49:23;;;;;;;26.45;23.85;;;;;;;20.54;76.71;101424.38;6214278;28;20229;-48
2021/09/11 08:52:46;;;;;;;25.77;23.25;;;;;;;20.74;76.03;101428.03;6209453;28;20224;-53
2021/09/11 08:56:07;;;;;;;28.60;25.83;;;;;;;20.58;76.16;101446.28;6211995;28;20615;-50
2021/09/11 08:59:29;;;;;;;30.60;27.58;;;;;;;20.16;77.81;101447.97;6214014;28;20233;-51
2021/09/11 09:02:50;;;;;;;32.15;28.17;;;;;;;20.18;78.04;101448.78;6216614;28;20229;-52
2021/09/11 09:06:22;;;;;;;32.05;28.85;;;;;;;19.93;78.79;101447.97;6202720;28;20237;-49
2021/09/11 09:09:42;;;;;;;34.90;31.25;;;;;;;19.29;81.98;101449.41;6203858;28;20251;-51
2021/09/11 09:13:03;;;;;;;37.35;33.47;;;;;;;19.72;80.31;101452.31;6215442;28;20229;-49
2021/09/11 09:16:28;;;;;;;36.35;32.58;;;;;;;19.79;80.33;101452.03;6218760;28;20237;-49
2021/09/11 09:20:09;;;;;;;35.58;31.00;;;;;;;19.76;80.21;101448.63;6198437;28;20224;-53
2021/09/11 09:23:30;;;;;;;35.72;30.63;;;;;;;19.80;80.13;101451.09;6206381;28;20567;-48
2021/09/11 09:26:53;;;;;;;33.63;28.35;;;;;;;20.23;77.49;101457.34;6220106;28;20482;-49
2021/09/11 09:30:14;;;;;;;35.55;31.83;;;;;;;19.68;80.24;101456.81;6208977;28;20606;-48
2021/09/11 09:33:38;;;;;;;29.38;26.40;;;;;;;20.25;78.38;101444.94;6209493;28;20612;-56
2021/09/11 09:37:02;;;;;;;35.95;31.50;;;;;;;20.06;78.72;101446.59;6190202;28;20365;-48
2021/09/11 09:40:35;;;;;;;36.15;30.02;;;;;;;19.98;79.02;101453.94;6190690;28;20233;-49
2021/09/11 09:43:56;;;;;;;32.35;29.13;;;;;;;20.38;77.25;101447.97;6186297;28;20237;-49
2021/09/11 09:47:19;;;;;;;31.92;28.70;;;;;;;20.96;75.48;101434.16;6197102;28;20237;-52
2021/09/11 09:50:42;;;;;;;33.42;30.00;;;;;;;20.52;76.69;101444.75;6189450;28;20238;-51
2021/09/11 09:54:03;;;;;;;33.53;29.88;;;;;;;20.45;78.04;101437.97;6193266;28;20234;-50
2021/09/11 09:57:25;;;;;;;32.50;29.20;;;;;;;20.95;75.27;101435.06;6191764;28;20249;-50
2021/09/11 10:00:46;;;;;;;34.15;30.58;;;;;;;21.15;74.03;101433.31;6199490;28;20330;-50
2021/09/11 10:04:15;;;;;;;28.77;25.92;;;;;;;21.18;74.47;101428.75;6195559;28;20229;-51
2021/09/11 10:07:37;;;;;;;26.70;23.90;;;;;;;21.37;73.04;101431.47;6192148;28;20626;-49
2021/09/11 10:10:58;;;;;;;29.27;26.27;;;;;;;21.06;74.13;101434.59;6206485;28;20221;-47
2021/09/11 10:14:21;;;;;;;27.95;25.25;;;;;;;21.50;72.24;101433.59;6211844;28;20245;-47
2021/09/11 10:17:41;;;;;;;27.80;25.10;;;;;;;22.46;68.35;101430.88;6189009;28;20220;-50
2021/09/11 10:21:37;;;;;;;27.02;24.33;;;;;;;22.64;66.99;101436.19;6211104;28;20359;-49
2021/09/11 10:25:05;;;;;;;21.75;19.63;;;;;;;23.77;62.32;101422.31;6218576;28;20315;-52
2021/09/11 10:28:25;;;;;;;22.10;19.77;;;;;;;24.01;62.48;101419.25;6204406;28;20343;-48
2021/09/11 10:31:56;;;;;;;22.40;20.10;;;;;;;23.59;61.42;101417.97;6205416;28;20225;-46
2021/09/11 10:35:24;;;;;;;21.92;19.90;;;;;;;22.34;65.65;101426.16;6199898;28;20240;-52
2021/09/11 10:38:45;;;;;;;23.52;21.23;;;;;;;22.08;66.50;101432.69;6205598;28;20312;-49
2021/09/11 10:42:09;;;;;;;24.52;21.98;;;;;;;21.77;67.53;101435.00;6213174;28;20312;-53
2021/09/11 10:45:38;;;;;;;23.27;20.88;;;;;;;21.47;68.11;101426.66;6213562;28;20244;-50
2021/09/11 10:48:59;;;;;;;21.00;18.88;;;;;;;22.69;65.05;101424.41;6207566;28;20229;-54
2021/09/11 10:52:20;;;;;;;24.17;21.33;;;;;;;22.44;64.26;101421.28;6211067;28;20225;-53
2021/09/11 10:55:41;;;;;;;20.75;18.58;;;;;;;23.04;62.34;101420.94;6206289;28;20249;-51
2021/09/11 10:59:34;;;;;;;20.85;17.92;;;;;;;21.84;63.78;101424.97;6201249;28;20232;-52
2021/09/11 11:03:18;;;;;;;23.95;20.15;;;;;;;21.87;64.66;101423.94;6108627;28;20258;-52
2021/09/11 11:06:41;;;;;;;24.33;19.27;;;;;;;21.75;65.81;101407.72;6210609;28;20237;-51
2021/09/11 11:10:04;;;;;;;22.77;20.60;;;;;;;21.47;65.70;101415.19;6206395;28;20503;-53
2021/09/11 11:13:25;;;;;;;21.38;19.17;;;;;;;21.63;65.48;101408.25;6199760;28;20228;-53
2021/09/11 11:16:50;;;;;;;20.83;18.83;;;;;;;21.63;65.98;101408.25;6211077;28;20619;-51
2021/09/11 11:20:12;;;;;;;21.50;19.40;;;;;;;21.62;65.98;101409.19;6197231;28;20748;-47
2021/09/11 11:23:33;;;;;;;18.95;17.15;;;;;;;21.34;65.56;101407.75;6206573;28;20599;-51
2021/09/11 11:26:54;;;;;;;19.13;17.48;;;;;;;21.61;65.04;101407.47;6210221;28;20273;-50
2021/09/11 11:30:15;;;;;;;15.85;14.23;;;;;;;22.44;62.46;101410.66;6206497;28;20229;-49
2021/09/11 11:33:45;;;;;;;13.15;11.98;;;;;;;23.45;56.41;101410.75;6222535;28;20241;-50
2021/09/11 11:37:08;;;;;;;12.05;11.10;;;;;;;25.94;49.72;101406.00;6221734;28;20303;-46
2021/09/11 11:40:29;;;;;;;18.00;11.07;;;;;;;25.56;48.39;101411.06;6217268;28;20232;-48
2021/09/11 11:43:51;;;;;;;9.98;9.18;;;;;;;24.00;53.61;101406.91;6204496;28;20241;-52
2021/09/11 11:47:25;;;;;;;11.18;10.13;;;;;;;22.48;58.17;101423.69;6210467;28;20229;-51
2021/09/11 11:50:47;;;;;;;8.52;7.82;;;;;;;22.31;57.86;101421.84;6212154;28;20229;-55
2021/09/11 11:54:08;;;;;;;8.52;7.75;;;;;;;22.49;57.37;101398.88;6201157;28;20229;-50
2021/09/11 12:02:30;;;;;;;12.00;11.00;;;;;;;21.37;62.21;101415.56;6201707;28;20652;-54
2021/09/11 12:05:53;;;;;;;11.50;10.50;;;;;;;21.57;62.64;101404.09;6178623;28;20233;-49
2021/09/11 12:09:15;;;;;;;12.40;11.27;;;;;;;22.19;60.79;101407.38;6199281;28;20332;-48
2021/09/11 12:12:46;;;;;;;14.40;13.02;;;;;;;21.30;63.00;101400.88;6195245;28;20332;-49
2021/09/11 12:16:08;;;;;;;12.38;11.27;;;;;;;21.71;62.39;101390.19;6191758;28;20258;-50
2021/09/11 12:19:33;;;;;;;10.50;9.32;;;;;;;21.99;61.17;101386.25;6182710;28;20229;-62
2021/09/11 12:23:13;;;;;;;13.48;11.27;;;;;;;21.42;63.36;101389.75;6183898;28;20825;-61
2021/09/11 12:26:36;;;;;;;10.52;9.73;;;;;;;22.49;60.38;101377.66;6179582;28;20255;-54
2021/09/11 12:30:05;;;;;;;10.07;9.10;;;;;;;23.16;58.65;101375.97;6209963;28;20308;-57
2021/09/11 12:33:26;;;;;;;11.50;10.60;;;;;;;24.81;53.70;101372.06;6201006;28;20228;-55
2021/09/11 12:36:49;;;;;;;9.77;8.77;;;;;;;24.46;52.67;101385.63;6195211;28;20236;-54
2021/09/11 12:40:11;;;;;;;9.52;8.63;;;;;;;27.15;46.61;101369.44;6198500;28;20613;-57
2021/09/11 12:43:32;;;;;;;8.07;7.38;;;;;;;27.55;45.13;101375.50;6202932;28;20240;-57
2021/09/11 12:46:54;;;;;;;8.18;7.40;;;;;;;29.02;41.76;101374.34;6199480;28;20237;-58
2021/09/11 12:50:15;;;;;;;7.65;6.78;;;;;;;24.57;51.45;101390.38;6207290;28;20201;-58
2021/09/11 12:53:36;;;;;;;7.43;6.85;;;;;;;23.74;55.24;101376.41;6195054;28;20238;-59
2021/09/11 12:56:58;;;;;;;7.00;6.50;;;;;;;24.95;51.21;101380.09;6186141;28;20225;-55
2021/09/11 13:00:20;;;;;;;6.45;5.95;;;;;;;23.26;54.52;101379.00;6199150;28;20245;-52
2021/09/11 13:03:40;;;;;;;5.90;5.50;;;;;;;23.17;55.44;101385.69;6196867;28;20229;-55
2021/09/11 13:07:02;;;;;;;7.75;6.55;;;;;;;23.43;54.85;101386.06;6191299;28;20229;-57
2021/09/11 13:10:22;;;;;;;7.07;6.47;;;;;;;22.29;58.35;101391.03;6208135;28;20198;-57
2021/09/11 13:13:45;;;;;;;6.07;5.57;;;;;;;22.83;57.23;101381.22;6194504;28;20225;-56
2021/09/11 13:17:06;;;;;;;5.32;4.93;;;;;;;23.31;55.70;101376.97;6205976;28;20225;-57
2021/09/11 13:20:27;;;;;;;5.05;4.72;;;;;;;22.96;56.97;101374.34;6209554;28;20214;-57
2021/09/11 13:23:50;;;;;;;6.82;6.32;;;;;;;22.44;58.01;101379.66;6216398;28;20308;-56
2021/09/11 13:27:11;;;;;;;5.93;5.28;;;;;;;22.59;57.91;101384.22;6184161;28;20265;-46
2021/09/11 13:30:33;;;;;;;6.03;5.28;;;;;;;23.11;56.36;101377.16;6194267;28;20217;-47
2021/09/11 13:33:55;;;;;;;6.10;5.60;;;;;;;22.12;59.33;101384.75;6199755;28;20344;-47
2021/09/11 13:37:15;;;;;;;7.45;6.78;;;;;;;21.94;59.70;101385.63;6194862;28;20507;-49
2021/09/11 13:40:36;;;;;;;7.18;6.47;;;;;;;21.62;61.28;101385.34;6217766;28;20427;-47
2021/09/11 13:43:57;;;;;;;7.20;6.50;;;;;;;21.91;60.46;101385.78;6219476;28;20228;-50
2021/09/11 13:47:20;;;;;;;7.50;6.75;;;;;;;21.86;60.38;101378.03;6204660;28;20233;-47
2021/09/11 13:50:41;;;;;;;6.53;6.03;;;;;;;22.63;57.70;101378.75;6216104;28;20202;-49
2021/09/11 13:54:01;;;;;;;9.05;8.27;;;;;;;22.12;58.29;101386.50;6215218;28;20288;-49
2021/09/11 13:57:23;;;;;;;7.05;6.45;;;;;;;22.47;57.77;101390.13;6216749;28;20252;-51
2021/09/11 14:00:44;;;;;;;7.82;7.13;;;;;;;22.76;56.50;101390.44;6217569;28;20761;-52
2021/09/11 14:04:07;;;;;;;8.18;7.38;;;;;;;22.16;57.82;101396.91;6195313;28;20972;-46
2021/09/11 14:07:28;;;;;;;7.47;6.97;;;;;;;24.27;52.44;101383.22;6186183;28;20233;-47
2021/09/11 14:10:49;;;;;;;9.07;8.18;;;;;;;23.47;55.36;101376.97;6188173;28;20206;-50
2021/09/11 14:14:11;;;;;;;9.45;8.52;;;;;;;22.34;58.18;101386.38;6199921;28;20213;-47
2021/09/11 14:17:32;;;;;;;8.65;7.85;;;;;;;23.15;55.80;101381.41;6184927;28;20857;-52
2021/09/11 14:20:54;;;;;;;7.47;6.57;;;;;;;26.00;48.54;101383.38;6182945;28;20289;-48
2021/09/11 14:24:15;;;;;;;10.15;9.27;;;;;;;24.31;52.07;101383.84;6194589;28;20210;-49
2021/09/11 14:27:38;;;;;;;9.57;8.68;;;;;;;22.85;55.77;101379.34;6180450;28;20308;-51
2021/09/11 14:30:59;;;;;;;8.82;8.00;;;;;;;23.02;56.37;101378.47;6186339;28;20490;-51
2021/09/11 14:34:20;;;;;;;9.27;8.38;;;;;;;22.08;59.16;101383.19;6214493;28;20619;-47
2021/09/11 14:37:43;;;;;;;11.90;10.80;;;;;;;22.02;60.29;101391.41;6191762;28;20234;-49
2021/09/11 14:41:04;;;;;;;10.48;9.52;;;;;;;21.30;62.48;101390.28;6211969;28;20206;-49
2021/09/11 14:44:25;;;;;;;8.68;8.05;;;;;;;21.82;61.03;101398.50;6215291;28;20213;-47
2021/09/11 14:47:47;;;;;;;10.93;9.98;;;;;;;21.54;62.19;101392.78;6211442;28;20646;-48
2021/09/11 14:51:07;;;;;;;10.93;9.82;;;;;;;21.37;62.61;101399.69;6193783;28;20202;-48
2021/09/11 14:54:29;;;;;;;13.18;11.98;;;;;;;21.30;62.75;101408.81;6201583;28;20209;-46
2021/09/11 14:57:51;;;;;;;12.63;11.50;;;;;;;21.48;62.28;101403.66;6205294;28;20225;-51
2021/09/11 15:01:12;;;;;;;12.65;11.63;;;;;;;21.45;62.82;101409.13;6205010;28;20569;-49
2021/09/11 15:04:33;;;;;;;13.15;11.55;;;;;;;21.89;61.91;101414.13;6207169;28;20928;-53
2021/09/11 15:07:55;;;;;;;12.75;11.70;;;;;;;21.73;61.97;101404.28;6204661;28;20221;-52
2021/09/11 15:11:17;;;;;;;12.80;11.90;;;;;;;21.69;62.48;101409.75;6201650;28;20322;-47
2021/09/11 15:14:38;;;;;;;14.00;12.70;;;;;;;21.68;63.43;101410.72;6195704;28;21812;-49
2021/09/11 15:17:59;;;;;;;14.60;13.40;;;;;;;21.15;65.69;101406.84;6198203;28;20270;-47
2021/09/11 15:21:19;;;;;;;15.20;13.88;;;;;;;20.60;68.52;101405.63;6197218;28;20244;-48
2021/09/11 15:24:40;;;;;;;14.63;13.38;;;;;;;21.52;65.84;101402.59;6214809;28;20210;-47
2021/09/11 15:28:02;;;;;;;16.38;14.95;;;;;;;21.35;66.36;101405.97;6194885;28;20281;-49